Главная страница
METAR-TAF:

METAR-TAF

Аэропорты :

Нальчик, Россия

широта: 43-30-46N, долгота: 043-38-12E, высота над уровнем моря: 445 м

Текущие метеонаблюдения

Эта сводка был подготовлена 52 минут назад, в 16:00 UTC
Ветер 4 Узел от восточный
Температура -1°C
Влажность 80%
Давление 1027 hPa
Видимость 10 км и более
Сплошная облачность на высоте 2500 фута

METAR: URMN 191600Z 10002MPS 9999 OVC025 M01/M04 Q1027 R24/010070 NOSIG RMK QFE733

Время: 20:52 (16:52 UTC)

Прогноз

Эта сводка был подготовлена 2 часа и 52 минут назад, в 14:00 UTC
Прогноз действительный с 19-го 15 UTC до 19-го 24 UTC
Ветер 6 Узел от восточно-северо-восточный
Видимость 10 км и более
Рассеянная облачность на высоте 1500 фута
временами
С 19-го 15 UTC до 19-го 21 UTC
Видимость: 2100 м
Сплошная облачность на высоте 400 фута
(Слабый) Снежные зерна, дымка

TAF: URMN 191400Z 1915/1924 06003MPS 9999 BKN015 TEMPO 1915/1921 2100 -SG BR OVC004

Метеонаблюдения и прогнозы для более 4000 аэропортов (сводки METAR и TAF).

Имеющиеся станции представлены на карте желтыми и красными точками.

Чтобы увидеть название станции, наведите на нее мышь.

Затем щелкните, чтобы увидеть метеонаблюдения и метеопрогнозы.

Управление картой: чтобы увеличить масштаб, щелкните зеленые кнопки с черным крестиком; чтобы уменьшить масштаб, щелкните зеленую кнопку с тире; для просмотра соседних карт щелкайте зеленые стрелки.


METAR-TAF: